createdAt,value
2017-09-05T00:03:45.161Z,25.4
2017-09-05T00:08:49.896Z,25.4
2017-09-05T00:13:54.303Z,25.4
2017-09-05T00:18:59.711Z,25.3
2017-09-05T00:24:05.127Z,25.3
2017-09-05T00:29:10.203Z,25.3
2017-09-05T00:34:15.274Z,25.3
2017-09-05T00:39:21.026Z,25.3
2017-09-05T00:44:26.107Z,25.3
2017-09-05T00:49:30.846Z,25.3
2017-09-05T00:54:36.263Z,25.3
2017-09-05T00:59:40.659Z,25.3
2017-09-05T01:04:45.738Z,25.3
2017-09-05T01:09:51.147Z,25.2
2017-09-05T01:14:56.228Z,25.3
2017-09-05T01:20:00.962Z,25.2
2017-09-05T01:25:06.370Z,25.2
2017-09-05T01:30:11.436Z,25.2
2017-09-05T01:35:16.177Z,25.2
2017-09-05T01:40:21.245Z,25.2
2017-09-05T01:45:26.649Z,25.2
2017-09-05T01:50:31.381Z,25.2
2017-09-05T01:55:36.446Z,25.2
2017-09-05T02:00:42.182Z,25.2
2017-09-05T02:05:47.245Z,25.1
2017-09-05T02:10:52.311Z,25.1
2017-09-05T02:15:58.382Z,25.1
2017-09-05T02:21:04.121Z,25.1
2017-09-05T02:26:10.197Z,25.1
2017-09-05T02:31:15.933Z,25.1
2017-09-05T02:36:21.332Z,25.1
2017-09-05T02:41:27.074Z,25.1
2017-09-05T02:46:32.143Z,25.1
2017-09-05T02:51:37.584Z,25.1
2017-09-05T02:56:42.613Z,25.1
2017-09-05T03:01:47.343Z,25
2017-09-05T03:06:52.415Z,25
2017-09-05T03:11:57.483Z,25
2017-09-05T03:17:02.551Z,25
2017-09-05T03:22:07.613Z,25
2017-09-05T03:27:13.030Z,25
2017-09-05T03:32:18.765Z,25
2017-09-05T03:37:23.827Z,25
2017-09-05T03:42:28.894Z,25
2017-09-05T03:47:34.631Z,24.9
2017-09-05T03:52:39.704Z,24.9
2017-09-05T03:57:45.771Z,24.9
2017-09-05T04:02:51.175Z,24.9
2017-09-05T04:07:56.912Z,24.9
2017-09-05T04:13:02.311Z,24.9
2017-09-05T04:18:08.043Z,24.9
2017-09-05T04:23:12.777Z,24.9
2017-09-05T04:28:17.844Z,24.9
2017-09-05T04:33:23.581Z,24.9
2017-09-05T04:38:28.653Z,24.9
2017-09-05T04:43:33.385Z,24.9
2017-09-05T04:48:39.523Z,24.9
2017-09-05T04:53:45.255Z,24.9
2017-09-05T04:58:49.995Z,24.9
2017-09-05T05:03:55.736Z,24.9
2017-09-05T05:09:01.132Z,24.9
2017-09-05T05:14:07.218Z,24.9
2017-09-05T05:19:12.627Z,24.9
2017-09-05T05:24:17.694Z,24.9
2017-09-05T05:29:23.095Z,25
2017-09-05T05:34:28.167Z,25
2017-09-05T05:39:33.249Z,25
2017-09-05T05:44:38.655Z,25
2017-09-05T05:49:43.722Z,25.1
2017-09-05T05:54:49.123Z,25.1
2017-09-05T05:59:54.192Z,25.1
2017-09-05T06:04:59.258Z,25.1
2017-09-05T06:10:04.661Z,25.2
2017-09-05T06:15:10.072Z,25.2
2017-09-05T06:20:15.475Z,25.2
2017-09-05T06:25:20.208Z,25.3
2017-09-05T06:30:25.952Z,25.3
2017-09-05T06:35:31.028Z,25.4
2017-09-05T06:40:37.101Z,25.4
2017-09-05T06:45:42.837Z,25.4
2017-09-05T06:50:48.912Z,25.5
2017-09-05T06:55:54.319Z,25.6
2017-09-05T07:00:59.059Z,25.6
2017-09-05T07:06:04.468Z,25.7
2017-09-05T07:11:09.202Z,25.8
2017-09-05T07:16:13.941Z,25.8
2017-09-05T07:21:18.681Z,25.9
2017-09-05T07:26:23.422Z,26
2017-09-05T07:31:28.500Z,26.1
2017-09-05T07:36:34.248Z,26.2
2017-09-05T07:41:38.993Z,26.4
2017-09-05T07:46:44.401Z,26.5
2017-09-05T07:51:49.814Z,26.6
2017-09-05T07:56:54.221Z,26.8
2017-09-05T08:01:59.297Z,26.8
2017-09-05T08:07:04.044Z,26.8
2017-09-05T08:12:09.121Z,26.9
2017-09-05T08:17:13.872Z,27
2017-09-05T08:22:18.615Z,27.1
2017-09-05T08:27:24.372Z,27.2
2017-09-05T08:32:29.457Z,27.5
2017-09-05T08:37:35.215Z,27.8
2017-09-05T08:42:39.967Z,28
2017-09-05T08:47:45.049Z,28.1
2017-09-05T08:52:49.809Z,28.1
2017-09-05T08:57:54.230Z,28.2
2017-09-05T09:02:59.662Z,28.2
2017-09-05T09:08:04.751Z,28.2
2017-09-05T09:13:10.178Z,28.1
2017-09-05T09:18:15.270Z,28.1
2017-09-05T09:23:20.697Z,28.1
2017-09-05T09:28:26.119Z,28
2017-09-05T09:33:31.881Z,28
2017-09-05T09:38:37.640Z,28
2017-09-05T09:43:43.069Z,28
2017-09-05T09:48:48.828Z,28.1
2017-09-05T09:53:53.920Z,28.1
2017-09-05T09:58:59.057Z,28
2017-09-05T10:04:04.483Z,28
2017-09-05T10:09:09.905Z,27.9
2017-09-05T10:14:15.328Z,28
2017-09-05T10:19:21.081Z,27.9
2017-09-05T10:24:25.497Z,27.8
2017-09-05T10:29:29.918Z,27.7
2017-09-05T10:34:35.342Z,27.5
2017-09-05T10:39:41.093Z,27.4
2017-09-05T10:44:46.171Z,27.3
2017-09-05T10:49:51.920Z,27.3
2017-09-05T10:54:57.000Z,27.2
2017-09-05T11:00:02.748Z,27.2
2017-09-05T11:05:08.500Z,27.1
2017-09-05T11:10:13.577Z,27.1
2017-09-05T11:15:18.323Z,27.1
2017-09-05T11:20:23.404Z,27
2017-09-05T11:25:28.152Z,27
2017-09-05T11:30:34.239Z,27
2017-09-05T11:35:39.654Z,27
2017-09-05T11:40:45.068Z,27
2017-09-05T11:45:50.482Z,27
2017-09-05T11:50:55.565Z,27
2017-09-05T11:56:00.308Z,27
2017-09-05T12:01:05.732Z,27
2017-09-05T12:06:10.138Z,27
2017-09-05T12:11:15.215Z,27
2017-09-05T12:16:20.297Z,27
2017-09-05T12:21:25.373Z,27
2017-09-05T12:26:31.124Z,27
2017-09-05T12:31:36.199Z,27
2017-09-05T12:36:41.949Z,27
2017-09-05T12:41:47.705Z,27
2017-09-05T12:46:53.120Z,27
2017-09-05T12:51:58.537Z,27
2017-09-05T12:57:02.941Z,27
2017-09-05T13:02:07.688Z,27
2017-09-05T13:07:13.101Z,27
2017-09-05T13:12:18.182Z,26.9
2017-09-05T13:17:23.928Z,26.9
2017-09-05T13:22:28.334Z,26.9
2017-09-05T13:27:32.742Z,26.9
2017-09-05T13:32:37.831Z,26.9
2017-09-05T13:37:42.907Z,26.9
2017-09-05T13:42:47.648Z,26.9
2017-09-05T13:47:53.396Z,26.8
2017-09-05T13:52:58.467Z,26.8
2017-09-05T13:58:03.541Z,26.8
2017-09-05T14:03:08.621Z,26.7
2017-09-05T14:08:13.699Z,26.7
2017-09-05T14:13:19.455Z,26.7
2017-09-05T14:18:25.535Z,26.7
2017-09-05T14:23:30.273Z,26.6
2017-09-05T14:28:36.034Z,26.6
2017-09-05T14:33:41.454Z,26.5
2017-09-05T14:38:46.865Z,26.5
2017-09-05T14:43:52.290Z,26.5
2017-09-05T14:48:57.706Z,26.6
2017-09-05T14:54:03.126Z,26.6
2017-09-05T14:59:08.306Z,26.6
2017-09-05T15:04:14.068Z,26.6
2017-09-05T15:09:20.153Z,26.6
2017-09-05T15:14:24.888Z,26.6
2017-09-05T15:19:30.297Z,26.6
2017-09-05T15:24:36.109Z,26.6
2017-09-05T15:29:41.867Z,26.6
2017-09-05T15:34:46.946Z,26.6
2017-09-05T15:39:51.694Z,26.6
2017-09-05T15:44:57.441Z,26.6
2017-09-05T15:50:03.184Z,26.6
2017-09-05T15:55:08.602Z,26.6
2017-09-05T16:00:13.342Z,26.6
2017-09-05T16:05:18.758Z,26.6
2017-09-05T16:10:24.221Z,26.6
2017-09-05T16:15:29.649Z,26.6
2017-09-05T16:20:34.766Z,26.5
2017-09-05T16:25:40.548Z,26.5
2017-09-05T16:30:45.988Z,26.5
2017-09-05T16:35:51.424Z,26.5
2017-09-05T16:40:57.519Z,26.5
2017-09-05T16:46:03.688Z,26.5
2017-09-05T16:51:08.133Z,26.4
2017-09-05T16:56:13.666Z,26.4
2017-09-05T17:01:19.772Z,26.4
2017-09-05T17:06:24.314Z,26.4
2017-09-05T17:11:30.073Z,26.4
2017-09-05T17:16:35.604Z,26.4
2017-09-05T17:21:41.050Z,26.4
2017-09-05T17:26:46.480Z,26.4
2017-09-05T17:31:52.261Z,26.4
2017-09-05T17:36:57.031Z,26.4
2017-09-05T17:42:02.898Z,26.4
2017-09-05T17:47:08.346Z,26.4
2017-09-05T17:52:13.503Z,26.4
2017-09-05T17:57:18.625Z,26.4
2017-09-05T18:02:24.051Z,26.4
2017-09-05T18:07:29.488Z,26.4
2017-09-05T18:12:34.575Z,26.4
2017-09-05T18:17:40.677Z,26.4
2017-09-05T18:22:45.457Z,26.4
2017-09-05T18:27:50.227Z,26.4
2017-09-05T18:32:55.652Z,26.4
2017-09-05T18:38:01.089Z,26.4
2017-09-05T18:43:05.864Z,26.4
2017-09-05T18:48:10.985Z,26.4
2017-09-05T18:53:16.762Z,26.4
2017-09-05T18:58:22.233Z,26.4
2017-09-05T19:03:28.011Z,26.4
2017-09-05T19:08:32.800Z,26.4
2017-09-05T19:13:37.918Z,26.4
2017-09-05T19:18:43.699Z,26.4
2017-09-05T19:23:48.534Z,26.4
2017-09-05T19:28:53.667Z,26.4
2017-09-05T19:33:58.099Z,26.4
2017-09-05T19:39:02.545Z,26.4
2017-09-05T19:44:08.101Z,26.4
2017-09-05T19:49:13.224Z,26.4
2017-09-05T19:54:18.662Z,26.4
2017-09-05T19:59:24.756Z,26.4
2017-09-05T20:04:29.834Z,26.4
2017-09-05T20:09:35.246Z,26.4
2017-09-05T20:14:40.560Z,26.4
2017-09-05T20:19:45.660Z,26.4
2017-09-05T20:24:50.756Z,26.4
2017-09-05T20:29:55.195Z,26.4
2017-09-05T20:35:00.602Z,26.4
2017-09-05T20:40:06.348Z,26.4
2017-09-05T20:45:11.424Z,26.4
2017-09-05T20:50:16.168Z,26.4
2017-09-05T20:55:21.249Z,26.4
2017-09-05T21:00:26.997Z,26.4
2017-09-05T21:05:32.081Z,26.4
2017-09-05T21:10:37.829Z,26.4
2017-09-05T21:15:43.579Z,26.4
2017-09-05T21:20:48.664Z,26.4
2017-09-05T21:25:53.749Z,26.3
2017-09-05T21:30:59.160Z,26.3
2017-09-05T21:36:04.468Z,26.3
2017-09-05T21:41:10.401Z,26.3
2017-09-05T21:46:16.148Z,26.3
2017-09-05T21:51:21.230Z,26.3
2017-09-05T21:56:26.314Z,26.3
2017-09-05T22:01:31.095Z,26.3
2017-09-05T22:06:36.471Z,26.3
2017-09-05T22:11:41.545Z,26.3
2017-09-05T22:16:46.959Z,26.3
2017-09-05T22:21:52.362Z,26.3
2017-09-05T22:26:57.765Z,26.3
2017-09-05T22:32:03.504Z,26.3
2017-09-05T22:37:08.575Z,26.3
2017-09-05T22:42:13.642Z,26.3
2017-09-05T22:47:19.053Z,26.3
2017-09-05T22:52:25.137Z,26.3
2017-09-05T22:57:30.881Z,26.3
2017-09-05T23:02:36.289Z,26.3
2017-09-05T23:07:42.028Z,26.3
2017-09-05T23:12:47.772Z,26.2
2017-09-05T23:17:53.516Z,26.2
2017-09-05T23:22:58.587Z,26.2
2017-09-05T23:28:03.990Z,26.2
2017-09-05T23:33:09.397Z,26.2
2017-09-05T23:38:14.907Z,26.2
2017-09-05T23:43:19.982Z,26.2
2017-09-05T23:48:26.061Z,26.2
2017-09-05T23:53:31.132Z,26.2
2017-09-05T23:58:36.540Z,26.2
